sensor_id;sensor_type;location;lat;lon;timestamp;P1;durP1;ratioP1;P2;durP2;ratioP2
69629;SDS011;56857;52.212;5.496;2023-09-08T00:00:41;11.15;;;7.55;;
69629;SDS011;56857;52.212;5.496;2023-09-08T00:03:06;11.05;;;6.95;;
69629;SDS011;56857;52.212;5.496;2023-09-08T00:05:31;10.32;;;7.25;;
69629;SDS011;56857;52.212;5.496;2023-09-08T00:07:57;9.98;;;6.72;;
69629;SDS011;56857;52.212;5.496;2023-09-08T00:10:22;11.55;;;7.40;;
69629;SDS011;56857;52.212;5.496;2023-09-08T00:12:47;11.85;;;7.15;;
69629;SDS011;56857;52.212;5.496;2023-09-08T00:15:13;13.27;;;7.40;;
69629;SDS011;56857;52.212;5.496;2023-09-08T00:17:38;11.63;;;7.90;;
69629;SDS011;56857;52.212;5.496;2023-09-08T00:20:05;11.95;;;7.03;;
69629;SDS011;56857;52.212;5.496;2023-09-08T00:22:31;12.75;;;7.60;;
69629;SDS011;56857;52.212;5.496;2023-09-08T00:24:56;10.40;;;7.63;;
69629;SDS011;56857;52.212;5.496;2023-09-08T00:27:22;12.13;;;7.63;;
69629;SDS011;56857;52.212;5.496;2023-09-08T00:29:48;12.68;;;7.30;;
69629;SDS011;56857;52.212;5.496;2023-09-08T00:32:13;12.02;;;7.95;;
69629;SDS011;56857;52.212;5.496;2023-09-08T00:34:40;11.85;;;7.38;;
69629;SDS011;56857;52.212;5.496;2023-09-08T00:37:05;11.90;;;7.32;;
69629;SDS011;56857;52.212;5.496;2023-09-08T00:39:31;13.17;;;7.83;;
69629;SDS011;56857;52.212;5.496;2023-09-08T00:41:56;12.87;;;7.77;;
69629;SDS011;56857;52.212;5.496;2023-09-08T00:44:21;16.50;;;7.72;;
69629;SDS011;56857;52.212;5.496;2023-09-08T00:46:47;13.73;;;8.15;;
69629;SDS011;56857;52.212;5.496;2023-09-08T00:49:12;11.98;;;7.40;;
69629;SDS011;56857;52.212;5.496;2023-09-08T00:51:37;12.23;;;8.03;;
69629;SDS011;56857;52.212;5.496;2023-09-08T00:54:03;11.80;;;8.43;;
69629;SDS011;56857;52.212;5.496;2023-09-08T00:56:29;11.88;;;7.68;;
69629;SDS011;56857;52.212;5.496;2023-09-08T00:58:54;13.32;;;8.40;;
69629;SDS011;56857;52.212;5.496;2023-09-08T01:01:20;12.77;;;8.15;;
69629;SDS011;56857;52.212;5.496;2023-09-08T01:03:45;12.65;;;8.10;;
69629;SDS011;56857;52.212;5.496;2023-09-08T01:06:10;14.07;;;8.93;;
69629;SDS011;56857;52.212;5.496;2023-09-08T01:08:37;12.68;;;8.02;;
69629;SDS011;56857;52.212;5.496;2023-09-08T01:11:02;14.90;;;8.77;;
69629;SDS011;56857;52.212;5.496;2023-09-08T01:13:28;12.20;;;8.15;;
69629;SDS011;56857;52.212;5.496;2023-09-08T01:15:53;12.48;;;8.48;;
69629;SDS011;56857;52.212;5.496;2023-09-08T01:18:19;14.02;;;8.95;;
69629;SDS011;56857;52.212;5.496;2023-09-08T01:23:46;14.55;;;9.65;;
69629;SDS011;56857;52.212;5.496;2023-09-08T01:26:17;14.57;;;8.20;;
69629;SDS011;56857;52.212;5.496;2023-09-08T01:28:47;13.82;;;8.73;;
69629;SDS011;56857;52.212;5.496;2023-09-08T01:31:14;12.98;;;8.70;;
69629;SDS011;56857;52.212;5.496;2023-09-08T01:33:41;13.07;;;8.60;;
69629;SDS011;56857;52.212;5.496;2023-09-08T01:36:07;16.15;;;9.25;;
69629;SDS011;56857;52.212;5.496;2023-09-08T01:38:33;15.63;;;9.38;;
69629;SDS011;56857;52.212;5.496;2023-09-08T01:40:58;13.40;;;8.57;;
69629;SDS011;56857;52.212;5.496;2023-09-08T01:43:23;14.00;;;9.80;;
69629;SDS011;56857;52.212;5.496;2023-09-08T01:45:49;12.77;;;8.63;;
69629;SDS011;56857;52.212;5.496;2023-09-08T01:48:14;13.10;;;9.43;;
69629;SDS011;56857;52.212;5.496;2023-09-08T01:50:39;13.77;;;9.05;;
69629;SDS011;56857;52.212;5.496;2023-09-08T01:53:05;15.68;;;9.57;;
69629;SDS011;56857;52.212;5.496;2023-09-08T01:55:30;13.48;;;9.40;;
69629;SDS011;56857;52.212;5.496;2023-09-08T01:57:55;14.43;;;9.43;;
69629;SDS011;56857;52.212;5.496;2023-09-08T02:00:20;15.60;;;9.60;;
69629;SDS011;56857;52.212;5.496;2023-09-08T02:02:46;16.20;;;9.73;;
69629;SDS011;56857;52.212;5.496;2023-09-08T02:05:11;14.00;;;10.02;;
69629;SDS011;56857;52.212;5.496;2023-09-08T02:07:36;14.27;;;10.05;;
69629;SDS011;56857;52.212;5.496;2023-09-08T02:10:02;15.60;;;10.25;;
69629;SDS011;56857;52.212;5.496;2023-09-08T02:12:27;16.35;;;10.27;;
69629;SDS011;56857;52.212;5.496;2023-09-08T02:14:52;13.47;;;9.63;;
69629;SDS011;56857;52.212;5.496;2023-09-08T02:17:18;17.67;;;10.50;;
69629;SDS011;56857;52.212;5.496;2023-09-08T02:19:43;13.85;;;10.23;;
69629;SDS011;56857;52.212;5.496;2023-09-08T02:22:09;15.50;;;10.23;;
69629;SDS011;56857;52.212;5.496;2023-09-08T02:24:34;17.30;;;10.00;;
69629;SDS011;56857;52.212;5.496;2023-09-08T02:26:59;17.20;;;10.43;;
69629;SDS011;56857;52.212;5.496;2023-09-08T02:29:24;15.02;;;9.95;;
69629;SDS011;56857;52.212;5.496;2023-09-08T02:31:50;14.70;;;10.02;;
69629;SDS011;56857;52.212;5.496;2023-09-08T02:34:15;16.23;;;10.30;;
69629;SDS011;56857;52.212;5.496;2023-09-08T02:36:40;14.50;;;10.60;;
69629;SDS011;56857;52.212;5.496;2023-09-08T02:39:06;15.18;;;10.25;;
69629;SDS011;56857;52.212;5.496;2023-09-08T02:41:31;13.40;;;9.95;;
69629;SDS011;56857;52.212;5.496;2023-09-08T02:43:56;15.00;;;10.30;;
69629;SDS011;56857;52.212;5.496;2023-09-08T02:46:22;14.37;;;10.23;;
69629;SDS011;56857;52.212;5.496;2023-09-08T02:48:47;14.43;;;9.75;;
69629;SDS011;56857;52.212;5.496;2023-09-08T02:51:12;17.13;;;10.63;;
69629;SDS011;56857;52.212;5.496;2023-09-08T02:53:37;16.35;;;9.88;;
69629;SDS011;56857;52.212;5.496;2023-09-08T02:56:03;17.13;;;10.07;;
69629;SDS011;56857;52.212;5.496;2023-09-08T02:58:28;16.75;;;9.80;;
69629;SDS011;56857;52.212;5.496;2023-09-08T03:00:54;16.02;;;11.00;;
69629;SDS011;56857;52.212;5.496;2023-09-08T03:03:19;16.65;;;11.10;;
69629;SDS011;56857;52.212;5.496;2023-09-08T03:05:46;16.67;;;11.02;;
69629;SDS011;56857;52.212;5.496;2023-09-08T03:08:11;17.70;;;11.18;;
69629;SDS011;56857;52.212;5.496;2023-09-08T03:10:36;17.38;;;10.48;;
69629;SDS011;56857;52.212;5.496;2023-09-08T03:13:04;15.13;;;9.90;;
69629;SDS011;56857;52.212;5.496;2023-09-08T03:15:30;15.48;;;10.90;;
69629;SDS011;56857;52.212;5.496;2023-09-08T03:17:56;16.40;;;10.00;;
69629;SDS011;56857;52.212;5.496;2023-09-08T03:20:22;15.88;;;11.02;;
69629;SDS011;56857;52.212;5.496;2023-09-08T03:22:47;17.45;;;10.73;;
69629;SDS011;56857;52.212;5.496;2023-09-08T03:25:13;15.05;;;10.50;;
69629;SDS011;56857;52.212;5.496;2023-09-08T03:27:39;18.05;;;10.27;;
69629;SDS011;56857;52.212;5.496;2023-09-08T03:30:05;16.63;;;11.27;;
69629;SDS011;56857;52.212;5.496;2023-09-08T03:32:31;14.13;;;9.77;;
69629;SDS011;56857;52.212;5.496;2023-09-08T03:34:56;15.95;;;11.02;;
69629;SDS011;56857;52.212;5.496;2023-09-08T03:37:22;15.90;;;10.80;;
69629;SDS011;56857;52.212;5.496;2023-09-08T03:39:47;18.80;;;11.55;;
69629;SDS011;56857;52.212;5.496;2023-09-08T03:42:12;15.63;;;10.43;;
69629;SDS011;56857;52.212;5.496;2023-09-08T03:44:38;14.93;;;11.05;;
69629;SDS011;56857;52.212;5.496;2023-09-08T03:47:03;17.70;;;10.65;;
69629;SDS011;56857;52.212;5.496;2023-09-08T03:49:28;16.95;;;10.77;;
69629;SDS011;56857;52.212;5.496;2023-09-08T03:51:54;16.90;;;11.35;;
69629;SDS011;56857;52.212;5.496;2023-09-08T03:54:19;14.53;;;10.27;;
69629;SDS011;56857;52.212;5.496;2023-09-08T03:56:44;14.13;;;10.70;;
69629;SDS011;56857;52.212;5.496;2023-09-08T03:59:10;15.00;;;11.00;;
69629;SDS011;56857;52.212;5.496;2023-09-08T04:01:35;15.65;;;10.90;;
69629;SDS011;56857;52.212;5.496;2023-09-08T04:04:00;16.30;;;10.50;;
69629;SDS011;56857;52.212;5.496;2023-09-08T04:06:26;16.98;;;10.57;;
69629;SDS011;56857;52.212;5.496;2023-09-08T04:08:51;15.30;;;10.97;;
69629;SDS011;56857;52.212;5.496;2023-09-08T04:11:16;15.90;;;11.52;;
69629;SDS011;56857;52.212;5.496;2023-09-08T04:13:42;16.00;;;11.20;;
69629;SDS011;56857;52.212;5.496;2023-09-08T04:16:07;16.40;;;11.57;;
69629;SDS011;56857;52.212;5.496;2023-09-08T04:18:32;16.17;;;10.07;;
69629;SDS011;56857;52.212;5.496;2023-09-08T04:20:57;17.02;;;10.98;;
69629;SDS011;56857;52.212;5.496;2023-09-08T04:23:23;17.52;;;10.90;;
69629;SDS011;56857;52.212;5.496;2023-09-08T04:25:48;16.40;;;11.20;;
69629;SDS011;56857;52.212;5.496;2023-09-08T04:28:13;15.45;;;10.88;;
69629;SDS011;56857;52.212;5.496;2023-09-08T04:30:39;16.00;;;11.00;;
69629;SDS011;56857;52.212;5.496;2023-09-08T04:33:04;18.65;;;12.10;;
69629;SDS011;56857;52.212;5.496;2023-09-08T04:35:29;19.50;;;11.00;;
69629;SDS011;56857;52.212;5.496;2023-09-08T04:37:55;17.38;;;11.80;;
69629;SDS011;56857;52.212;5.496;2023-09-08T04:40:20;14.90;;;11.23;;
69629;SDS011;56857;52.212;5.496;2023-09-08T04:42:45;17.70;;;11.53;;
69629;SDS011;56857;52.212;5.496;2023-09-08T04:45:10;15.15;;;10.63;;
69629;SDS011;56857;52.212;5.496;2023-09-08T04:47:36;14.97;;;11.60;;
69629;SDS011;56857;52.212;5.496;2023-09-08T04:50:01;18.75;;;11.68;;
69629;SDS011;56857;52.212;5.496;2023-09-08T04:52:26;16.45;;;11.82;;
69629;SDS011;56857;52.212;5.496;2023-09-08T04:54:52;19.48;;;11.23;;
69629;SDS011;56857;52.212;5.496;2023-09-08T04:57:17;16.65;;;11.23;;
69629;SDS011;56857;52.212;5.496;2023-09-08T04:59:42;17.85;;;12.18;;
69629;SDS011;56857;52.212;5.496;2023-09-08T05:02:08;15.65;;;11.00;;
69629;SDS011;56857;52.212;5.496;2023-09-08T05:04:33;17.10;;;11.32;;
69629;SDS011;56857;52.212;5.496;2023-09-08T05:06:58;16.17;;;10.75;;
69629;SDS011;56857;52.212;5.496;2023-09-08T05:09:24;16.38;;;11.55;;
69629;SDS011;56857;52.212;5.496;2023-09-08T05:11:49;17.08;;;10.80;;
69629;SDS011;56857;52.212;5.496;2023-09-08T05:14:14;17.00;;;11.63;;
69629;SDS011;56857;52.212;5.496;2023-09-08T05:16:40;15.85;;;11.50;;
69629;SDS011;56857;52.212;5.496;2023-09-08T05:19:05;16.92;;;11.75;;
69629;SDS011;56857;52.212;5.496;2023-09-08T05:21:31;15.57;;;11.25;;
69629;SDS011;56857;52.212;5.496;2023-09-08T05:23:57;16.35;;;10.63;;
69629;SDS011;56857;52.212;5.496;2023-09-08T05:26:22;15.13;;;11.38;;
69629;SDS011;56857;52.212;5.496;2023-09-08T05:28:48;15.32;;;11.07;;
69629;SDS011;56857;52.212;5.496;2023-09-08T05:31:13;15.05;;;10.35;;
69629;SDS011;56857;52.212;5.496;2023-09-08T05:33:38;20.57;;;13.00;;
69629;SDS011;56857;52.212;5.496;2023-09-08T05:36:04;17.48;;;11.48;;
69629;SDS011;56857;52.212;5.496;2023-09-08T05:38:29;18.40;;;12.05;;
69629;SDS011;56857;52.212;5.496;2023-09-08T05:40:54;19.27;;;12.70;;
69629;SDS011;56857;52.212;5.496;2023-09-08T05:43:19;18.37;;;12.50;;
69629;SDS011;56857;52.212;5.496;2023-09-08T05:45:45;18.77;;;11.93;;
69629;SDS011;56857;52.212;5.496;2023-09-08T05:48:10;19.03;;;12.30;;
69629;SDS011;56857;52.212;5.496;2023-09-08T05:50:36;18.03;;;12.73;;
69629;SDS011;56857;52.212;5.496;2023-09-08T05:53:01;18.70;;;12.95;;
69629;SDS011;56857;52.212;5.496;2023-09-08T05:55:27;16.97;;;12.37;;
69629;SDS011;56857;52.212;5.496;2023-09-08T05:57:52;21.80;;;13.07;;
69629;SDS011;56857;52.212;5.496;2023-09-08T06:00:17;19.20;;;12.77;;
69629;SDS011;56857;52.212;5.496;2023-09-08T06:02:42;20.10;;;11.88;;
69629;SDS011;56857;52.212;5.496;2023-09-08T06:05:08;18.90;;;13.48;;
69629;SDS011;56857;52.212;5.496;2023-09-08T06:07:33;17.55;;;11.88;;
69629;SDS011;56857;52.212;5.496;2023-09-08T06:09:58;18.55;;;12.20;;
69629;SDS011;56857;52.212;5.496;2023-09-08T06:12:24;15.93;;;11.95;;
69629;SDS011;56857;52.212;5.496;2023-09-08T06:14:49;33.78;;;14.82;;
69629;SDS011;56857;52.212;5.496;2023-09-08T06:17:14;20.73;;;13.30;;
69629;SDS011;56857;52.212;5.496;2023-09-08T06:19:40;17.17;;;11.88;;
69629;SDS011;56857;52.212;5.496;2023-09-08T06:22:05;20.73;;;12.77;;
69629;SDS011;56857;52.212;5.496;2023-09-08T06:24:30;17.27;;;12.10;;
69629;SDS011;56857;52.212;5.496;2023-09-08T06:26:56;17.80;;;12.40;;
69629;SDS011;56857;52.212;5.496;2023-09-08T06:29:21;20.35;;;12.38;;
69629;SDS011;56857;52.212;5.496;2023-09-08T06:31:46;19.48;;;12.30;;
69629;SDS011;56857;52.212;5.496;2023-09-08T06:34:11;18.07;;;13.20;;
69629;SDS011;56857;52.212;5.496;2023-09-08T06:36:37;17.88;;;13.20;;
69629;SDS011;56857;52.212;5.496;2023-09-08T06:39:02;24.13;;;13.37;;
69629;SDS011;56857;52.212;5.496;2023-09-08T06:41:28;18.90;;;13.65;;
69629;SDS011;56857;52.212;5.496;2023-09-08T06:43:53;18.65;;;12.68;;
69629;SDS011;56857;52.212;5.496;2023-09-08T06:46:18;17.33;;;12.27;;
69629;SDS011;56857;52.212;5.496;2023-09-08T06:48:44;19.42;;;12.50;;
69629;SDS011;56857;52.212;5.496;2023-09-08T06:51:09;20.98;;;13.98;;
69629;SDS011;56857;52.212;5.496;2023-09-08T06:53:35;17.38;;;13.18;;
69629;SDS011;56857;52.212;5.496;2023-09-08T06:56:01;21.50;;;13.32;;
69629;SDS011;56857;52.212;5.496;2023-09-08T06:58:26;25.60;;;13.85;;
69629;SDS011;56857;52.212;5.496;2023-09-08T07:00:53;18.75;;;13.20;;
69629;SDS011;56857;52.212;5.496;2023-09-08T07:03:19;20.25;;;13.48;;
69629;SDS011;56857;52.212;5.496;2023-09-08T07:05:44;20.23;;;13.20;;
69629;SDS011;56857;52.212;5.496;2023-09-08T07:08:10;20.92;;;13.85;;
69629;SDS011;56857;52.212;5.496;2023-09-08T07:10:35;19.67;;;14.27;;
69629;SDS011;56857;52.212;5.496;2023-09-08T07:13:01;19.30;;;14.00;;
69629;SDS011;56857;52.212;5.496;2023-09-08T07:15:26;20.23;;;13.48;;
69629;SDS011;56857;52.212;5.496;2023-09-08T07:17:52;19.48;;;13.48;;
69629;SDS011;56857;52.212;5.496;2023-09-08T07:20:17;19.13;;;12.15;;
69629;SDS011;56857;52.212;5.496;2023-09-08T07:22:42;21.70;;;14.52;;
69629;SDS011;56857;52.212;5.496;2023-09-08T07:25:08;21.00;;;14.45;;
69629;SDS011;56857;52.212;5.496;2023-09-08T07:27:33;21.73;;;15.43;;
69629;SDS011;56857;52.212;5.496;2023-09-08T07:29:58;22.75;;;14.43;;
69629;SDS011;56857;52.212;5.496;2023-09-08T07:32:24;24.23;;;15.33;;
69629;SDS011;56857;52.212;5.496;2023-09-08T07:34:49;20.58;;;14.43;;
69629;SDS011;56857;52.212;5.496;2023-09-08T07:37:14;21.33;;;14.37;;
69629;SDS011;56857;52.212;5.496;2023-09-08T07:39:40;23.33;;;15.18;;
69629;SDS011;56857;52.212;5.496;2023-09-08T07:42:05;22.10;;;14.43;;
69629;SDS011;56857;52.212;5.496;2023-09-08T07:44:30;22.70;;;14.20;;
69629;SDS011;56857;52.212;5.496;2023-09-08T07:46:56;23.42;;;15.15;;
69629;SDS011;56857;52.212;5.496;2023-09-08T07:49:22;19.92;;;14.43;;
69629;SDS011;56857;52.212;5.496;2023-09-08T07:51:47;24.65;;;15.55;;
69629;SDS011;56857;52.212;5.496;2023-09-08T07:54:13;25.65;;;14.73;;
69629;SDS011;56857;52.212;5.496;2023-09-08T07:56:38;21.83;;;14.43;;
69629;SDS011;56857;52.212;5.496;2023-09-08T07:59:04;21.77;;;15.43;;
69629;SDS011;56857;52.212;5.496;2023-09-08T08:01:29;20.15;;;14.50;;
69629;SDS011;56857;52.212;5.496;2023-09-08T08:03:55;22.70;;;13.65;;
69629;SDS011;56857;52.212;5.496;2023-09-08T08:06:20;23.58;;;15.20;;
69629;SDS011;56857;52.212;5.496;2023-09-08T08:08:45;19.33;;;13.70;;
69629;SDS011;56857;52.212;5.496;2023-09-08T08:11:11;20.40;;;13.82;;
69629;SDS011;56857;52.212;5.496;2023-09-08T08:13:37;22.17;;;14.45;;
69629;SDS011;56857;52.212;5.496;2023-09-08T08:16:03;23.13;;;14.00;;
69629;SDS011;56857;52.212;5.496;2023-09-08T08:18:28;22.90;;;13.57;;
69629;SDS011;56857;52.212;5.496;2023-09-08T08:20:54;20.38;;;13.27;;
69629;SDS011;56857;52.212;5.496;2023-09-08T08:23:19;17.50;;;12.50;;
69629;SDS011;56857;52.212;5.496;2023-09-08T08:25:44;18.77;;;12.98;;
69629;SDS011;56857;52.212;5.496;2023-09-08T08:28:10;19.92;;;12.77;;
69629;SDS011;56857;52.212;5.496;2023-09-08T08:30:35;18.52;;;12.23;;
69629;SDS011;56857;52.212;5.496;2023-09-08T08:33:01;18.92;;;13.00;;
69629;SDS011;56857;52.212;5.496;2023-09-08T08:35:26;19.70;;;12.43;;
69629;SDS011;56857;52.212;5.496;2023-09-08T08:37:51;17.30;;;11.93;;
69629;SDS011;56857;52.212;5.496;2023-09-08T08:40:17;18.20;;;12.57;;
69629;SDS011;56857;52.212;5.496;2023-09-08T08:42:42;17.42;;;11.63;;
69629;SDS011;56857;52.212;5.496;2023-09-08T08:45:08;18.75;;;12.07;;
69629;SDS011;56857;52.212;5.496;2023-09-08T08:47:33;15.88;;;11.68;;
69629;SDS011;56857;52.212;5.496;2023-09-08T08:49:59;16.85;;;12.13;;
69629;SDS011;56857;52.212;5.496;2023-09-08T08:52:26;16.92;;;11.98;;
69629;SDS011;56857;52.212;5.496;2023-09-08T08:54:52;13.77;;;10.18;;
69629;SDS011;56857;52.212;5.496;2023-09-08T08:57:18;19.20;;;11.27;;
69629;SDS011;56857;52.212;5.496;2023-09-08T08:59:45;16.17;;;11.00;;
69629;SDS011;56857;52.212;5.496;2023-09-08T09:02:12;16.33;;;11.05;;
69629;SDS011;56857;52.212;5.496;2023-09-08T09:04:37;18.17;;;10.65;;
69629;SDS011;56857;52.212;5.496;2023-09-08T09:07:04;17.55;;;11.27;;
69629;SDS011;56857;52.212;5.496;2023-09-08T09:09:31;15.13;;;10.07;;
69629;SDS011;56857;52.212;5.496;2023-09-08T09:11:56;16.50;;;10.73;;
69629;SDS011;56857;52.212;5.496;2023-09-08T09:14:22;15.73;;;10.50;;
69629;SDS011;56857;52.212;5.496;2023-09-08T09:16:47;16.63;;;10.63;;
69629;SDS011;56857;52.212;5.496;2023-09-08T09:19:23;13.55;;;9.50;;
69629;SDS011;56857;52.212;5.496;2023-09-08T09:21:48;12.77;;;8.90;;
69629;SDS011;56857;52.212;5.496;2023-09-08T09:24:17;16.27;;;8.55;;
69629;SDS011;56857;52.212;5.496;2023-09-08T09:26:55;12.63;;;8.75;;
69629;SDS011;56857;52.212;5.496;2023-09-08T09:29:21;15.13;;;8.57;;
69629;SDS011;56857;52.212;5.496;2023-09-08T09:34:18;14.43;;;9.05;;
69629;SDS011;56857;52.212;5.496;2023-09-08T09:36:44;11.88;;;8.02;;
69629;SDS011;56857;52.212;5.496;2023-09-08T09:39:10;12.85;;;8.25;;
69629;SDS011;56857;52.212;5.496;2023-09-08T09:41:35;13.90;;;7.85;;
69629;SDS011;56857;52.212;5.496;2023-09-08T09:44:01;13.73;;;8.65;;
69629;SDS011;56857;52.212;5.496;2023-09-08T09:46:29;11.88;;;7.35;;
69629;SDS011;56857;52.212;5.496;2023-09-08T09:48:55;14.38;;;8.13;;
69629;SDS011;56857;52.212;5.496;2023-09-08T09:51:20;12.18;;;7.60;;
69629;SDS011;56857;52.212;5.496;2023-09-08T09:53:45;14.20;;;7.28;;
69629;SDS011;56857;52.212;5.496;2023-09-08T09:56:11;12.95;;;7.72;;
69629;SDS011;56857;52.212;5.496;2023-09-08T09:58:37;12.32;;;7.78;;
69629;SDS011;56857;52.212;5.496;2023-09-08T10:01:03;13.05;;;7.45;;
69629;SDS011;56857;52.212;5.496;2023-09-08T10:03:29;12.40;;;7.85;;
69629;SDS011;56857;52.212;5.496;2023-09-08T10:05:55;13.07;;;7.07;;
69629;SDS011;56857;52.212;5.496;2023-09-08T10:08:20;12.85;;;7.72;;
69629;SDS011;56857;52.212;5.496;2023-09-08T10:10:47;13.38;;;7.22;;
69629;SDS011;56857;52.212;5.496;2023-09-08T10:13:12;17.42;;;8.02;;
69629;SDS011;56857;52.212;5.496;2023-09-08T10:18:09;13.55;;;8.15;;
69629;SDS011;56857;52.212;5.496;2023-09-08T10:20:37;11.90;;;8.30;;
69629;SDS011;56857;52.212;5.496;2023-09-08T10:23:06;12.18;;;7.40;;
69629;SDS011;56857;52.212;5.496;2023-09-08T10:25:37;11.88;;;8.30;;
69629;SDS011;56857;52.212;5.496;2023-09-08T10:28:07;11.80;;;7.40;;
69629;SDS011;56857;52.212;5.496;2023-09-08T10:30:33;11.93;;;8.43;;
69629;SDS011;56857;52.212;5.496;2023-09-08T10:32:59;14.07;;;7.72;;
69629;SDS011;56857;52.212;5.496;2023-09-08T10:35:26;12.40;;;7.93;;
69629;SDS011;56857;52.212;5.496;2023-09-08T10:38:05;17.08;;;7.75;;
69629;SDS011;56857;52.212;5.496;2023-09-08T10:40:47;15.10;;;8.25;;
69629;SDS011;56857;52.212;5.496;2023-09-08T10:43:12;12.23;;;8.63;;
69629;SDS011;56857;52.212;5.496;2023-09-08T10:45:39;12.93;;;7.60;;
69629;SDS011;56857;52.212;5.496;2023-09-08T10:48:05;12.63;;;8.48;;
69629;SDS011;56857;52.212;5.496;2023-09-08T10:50:34;14.60;;;8.27;;
69629;SDS011;56857;52.212;5.496;2023-09-08T10:53:04;13.50;;;8.20;;
69629;SDS011;56857;52.212;5.496;2023-09-08T10:55:36;9.85;;;6.47;;
69629;SDS011;56857;52.212;5.496;2023-09-08T10:58:05;12.15;;;7.60;;
69629;SDS011;56857;52.212;5.496;2023-09-08T11:00:42;13.75;;;6.53;;
69629;SDS011;56857;52.212;5.496;2023-09-08T11:03:08;12.45;;;6.32;;
69629;SDS011;56857;52.212;5.496;2023-09-08T11:05:33;11.75;;;6.97;;
69629;SDS011;56857;52.212;5.496;2023-09-08T11:07:59;13.13;;;7.97;;
69629;SDS011;56857;52.212;5.496;2023-09-08T11:10:24;13.68;;;7.65;;
69629;SDS011;56857;52.212;5.496;2023-09-08T11:12:49;12.50;;;6.80;;
69629;SDS011;56857;52.212;5.496;2023-09-08T11:15:15;9.57;;;6.55;;
69629;SDS011;56857;52.212;5.496;2023-09-08T11:17:40;16.58;;;7.32;;
69629;SDS011;56857;52.212;5.496;2023-09-08T11:20:05;12.75;;;6.32;;
69629;SDS011;56857;52.212;5.496;2023-09-08T11:22:31;11.35;;;6.00;;
69629;SDS011;56857;52.212;5.496;2023-09-08T11:24:57;10.18;;;6.30;;
69629;SDS011;56857;52.212;5.496;2023-09-08T11:27:22;11.00;;;7.10;;
69629;SDS011;56857;52.212;5.496;2023-09-08T11:29:49;14.68;;;5.95;;
69629;SDS011;56857;52.212;5.496;2023-09-08T11:32:14;12.25;;;5.68;;
69629;SDS011;56857;52.212;5.496;2023-09-08T11:34:40;8.38;;;5.65;;
69629;SDS011;56857;52.212;5.496;2023-09-08T11:37:15;9.75;;;5.38;;
69629;SDS011;56857;52.212;5.496;2023-09-08T11:39:45;9.25;;;5.55;;
69629;SDS011;56857;52.212;5.496;2023-09-08T11:42:14;12.35;;;6.28;;
69629;SDS011;56857;52.212;5.496;2023-09-08T11:44:40;10.23;;;6.40;;
69629;SDS011;56857;52.212;5.496;2023-09-08T11:47:08;12.60;;;6.57;;
69629;SDS011;56857;52.212;5.496;2023-09-08T11:49:39;10.27;;;6.30;;
69629;SDS011;56857;52.212;5.496;2023-09-08T11:54:31;12.07;;;7.07;;
69629;SDS011;56857;52.212;5.496;2023-09-08T11:56:57;12.48;;;6.78;;
69629;SDS011;56857;52.212;5.496;2023-09-08T11:59:25;9.90;;;6.32;;
69629;SDS011;56857;52.212;5.496;2023-09-08T12:01:51;13.60;;;6.97;;
69629;SDS011;56857;52.212;5.496;2023-09-08T12:04:17;13.00;;;7.30;;
69629;SDS011;56857;52.212;5.496;2023-09-08T12:06:43;13.70;;;8.90;;
69629;SDS011;56857;52.212;5.496;2023-09-08T12:09:09;13.88;;;7.35;;
69629;SDS011;56857;52.212;5.496;2023-09-08T12:11:34;15.25;;;7.60;;
69629;SDS011;56857;52.212;5.496;2023-09-08T12:14:00;14.32;;;8.73;;
69629;SDS011;56857;52.212;5.496;2023-09-08T12:16:26;12.70;;;8.23;;
69629;SDS011;56857;52.212;5.496;2023-09-08T12:18:51;12.90;;;8.10;;
69629;SDS011;56857;52.212;5.496;2023-09-08T12:21:17;14.77;;;8.25;;
69629;SDS011;56857;52.212;5.496;2023-09-08T12:23:49;16.27;;;8.65;;
69629;SDS011;56857;52.212;5.496;2023-09-08T12:26:15;14.82;;;8.88;;
69629;SDS011;56857;52.212;5.496;2023-09-08T12:28:41;13.05;;;8.77;;
69629;SDS011;56857;52.212;5.496;2023-09-08T12:31:06;13.70;;;8.00;;
69629;SDS011;56857;52.212;5.496;2023-09-08T12:33:32;13.68;;;8.00;;
69629;SDS011;56857;52.212;5.496;2023-09-08T12:35:57;12.48;;;7.07;;
69629;SDS011;56857;52.212;5.496;2023-09-08T12:38:23;11.75;;;7.53;;
69629;SDS011;56857;52.212;5.496;2023-09-08T12:40:48;11.60;;;7.00;;
69629;SDS011;56857;52.212;5.496;2023-09-08T12:43:13;10.75;;;7.32;;
69629;SDS011;56857;52.212;5.496;2023-09-08T12:45:39;13.35;;;6.38;;
69629;SDS011;56857;52.212;5.496;2023-09-08T12:48:04;12.18;;;6.70;;
69629;SDS011;56857;52.212;5.496;2023-09-08T12:50:30;11.52;;;6.28;;
69629;SDS011;56857;52.212;5.496;2023-09-08T12:52:56;11.43;;;5.70;;
69629;SDS011;56857;52.212;5.496;2023-09-08T12:55:21;8.95;;;5.53;;
69629;SDS011;56857;52.212;5.496;2023-09-08T12:57:47;11.38;;;5.78;;
69629;SDS011;56857;52.212;5.496;2023-09-08T13:00:12;9.07;;;5.15;;
69629;SDS011;56857;52.212;5.496;2023-09-08T13:02:39;11.18;;;5.40;;
69629;SDS011;56857;52.212;5.496;2023-09-08T13:05:05;10.63;;;5.03;;
69629;SDS011;56857;52.212;5.496;2023-09-08T13:07:30;8.88;;;5.60;;
69629;SDS011;56857;52.212;5.496;2023-09-08T13:09:56;9.45;;;4.88;;
69629;SDS011;56857;52.212;5.496;2023-09-08T13:12:21;12.93;;;5.15;;
69629;SDS011;56857;52.212;5.496;2023-09-08T13:14:46;9.05;;;5.00;;
69629;SDS011;56857;52.212;5.496;2023-09-08T13:17:12;7.55;;;4.18;;
69629;SDS011;56857;52.212;5.496;2023-09-08T13:19:38;10.25;;;4.80;;
69629;SDS011;56857;52.212;5.496;2023-09-08T13:22:04;7.63;;;4.75;;
69629;SDS011;56857;52.212;5.496;2023-09-08T13:24:29;8.55;;;4.55;;
69629;SDS011;56857;52.212;5.496;2023-09-08T13:26:55;9.25;;;5.10;;
69629;SDS011;56857;52.212;5.496;2023-09-08T13:29:20;12.70;;;5.50;;
69629;SDS011;56857;52.212;5.496;2023-09-08T13:31:46;8.43;;;4.95;;
69629;SDS011;56857;52.212;5.496;2023-09-08T13:34:11;9.82;;;5.10;;
69629;SDS011;56857;52.212;5.496;2023-09-08T13:36:36;8.00;;;4.60;;
69629;SDS011;56857;52.212;5.496;2023-09-08T13:39:02;8.38;;;5.03;;
69629;SDS011;56857;52.212;5.496;2023-09-08T13:44:19;7.43;;;4.78;;
69629;SDS011;56857;52.212;5.496;2023-09-08T13:46:46;9.38;;;4.45;;
69629;SDS011;56857;52.212;5.496;2023-09-08T13:49:12;8.98;;;4.88;;
69629;SDS011;56857;52.212;5.496;2023-09-08T13:51:37;9.20;;;4.97;;
69629;SDS011;56857;52.212;5.496;2023-09-08T13:54:03;8.30;;;4.97;;
69629;SDS011;56857;52.212;5.496;2023-09-08T13:56:28;11.13;;;5.28;;
69629;SDS011;56857;52.212;5.496;2023-09-08T13:58:54;8.25;;;5.13;;
69629;SDS011;56857;52.212;5.496;2023-09-08T14:01:19;14.32;;;5.60;;
69629;SDS011;56857;52.212;5.496;2023-09-08T14:03:44;12.73;;;5.53;;
69629;SDS011;56857;52.212;5.496;2023-09-08T14:06:09;8.13;;;5.18;;
69629;SDS011;56857;52.212;5.496;2023-09-08T14:08:35;9.95;;;5.57;;
69629;SDS011;56857;52.212;5.496;2023-09-08T14:11:00;9.57;;;5.43;;
69629;SDS011;56857;52.212;5.496;2023-09-08T14:13:25;8.93;;;5.18;;
69629;SDS011;56857;52.212;5.496;2023-09-08T14:15:51;12.60;;;5.85;;
69629;SDS011;56857;52.212;5.496;2023-09-08T14:18:16;12.38;;;5.22;;
69629;SDS011;56857;52.212;5.496;2023-09-08T14:20:42;9.85;;;5.30;;
69629;SDS011;56857;52.212;5.496;2023-09-08T14:23:07;12.05;;;5.30;;
69629;SDS011;56857;52.212;5.496;2023-09-08T14:25:33;8.93;;;5.07;;
69629;SDS011;56857;52.212;5.496;2023-09-08T14:27:58;9.40;;;5.10;;
69629;SDS011;56857;52.212;5.496;2023-09-08T14:30:23;12.52;;;5.43;;
69629;SDS011;56857;52.212;5.496;2023-09-08T14:32:49;11.35;;;5.15;;